createdAt,value
2019-05-17T00:02:27.107Z,3.87
2019-05-17T00:04:56.409Z,4.30
2019-05-17T00:07:23.633Z,4.00
2019-05-17T00:09:51.132Z,4.53
2019-05-17T00:12:19.392Z,3.77
2019-05-17T00:14:47.261Z,4.37
2019-05-17T00:17:14.561Z,4.50
2019-05-17T00:19:42.184Z,4.77
2019-05-17T00:22:10.695Z,4.90
2019-05-17T00:24:38.962Z,4.40
2019-05-17T00:27:07.341Z,4.77
2019-05-17T00:29:37.028Z,4.87
2019-05-17T00:32:06.272Z,4.30
2019-05-17T00:34:32.491Z,4.70
2019-05-17T00:37:00.053Z,4.73
2019-05-17T00:39:28.348Z,5.10
2019-05-17T00:41:57.330Z,4.30
2019-05-17T00:44:27.085Z,4.97
2019-05-17T00:46:52.504Z,4.40
2019-05-17T00:49:20.010Z,4.60
2019-05-17T00:51:47.574Z,4.20
2019-05-17T00:54:17.250Z,4.67
2019-05-17T00:56:42.588Z,4.03
2019-05-17T00:59:10.072Z,4.77
2019-05-17T01:01:37.621Z,5.27
2019-05-17T01:04:06.858Z,4.73
2019-05-17T01:06:33.534Z,5.90
2019-05-17T01:09:04.104Z,4.97
2019-05-17T01:11:28.705Z,5.57
2019-05-17T01:13:58.505Z,5.10
2019-05-17T01:16:23.748Z,5.30
2019-05-17T01:18:52.017Z,5.47
2019-05-17T01:21:19.566Z,4.93
2019-05-17T01:23:47.066Z,4.87
2019-05-17T01:26:15.347Z,5.03
2019-05-17T01:28:43.713Z,4.63
2019-05-17T01:31:11.976Z,4.87
2019-05-17T01:33:39.466Z,4.97
2019-05-17T01:36:07.711Z,4.73
2019-05-17T01:38:37.411Z,5.07
2019-05-17T01:41:03.662Z,4.57
2019-05-17T01:43:31.192Z,5.07
2019-05-17T01:45:58.724Z,4.97
2019-05-17T01:48:27.188Z,5.17
2019-05-17T01:50:56.833Z,4.83
2019-05-17T01:53:22.912Z,4.90
2019-05-17T01:55:50.439Z,5.20
2019-05-17T01:58:18.059Z,4.57
2019-05-17T02:00:46.543Z,4.83
2019-05-17T02:03:13.173Z,4.73
2019-05-17T02:05:40.681Z,4.57
2019-05-17T02:08:08.202Z,5.03
2019-05-17T02:10:37.733Z,4.40
2019-05-17T02:13:06.631Z,5.33
2019-05-17T02:15:33.877Z,5.53
2019-05-17T02:18:01.372Z,5.00
2019-05-17T02:20:29.065Z,4.53
2019-05-17T02:22:56.896Z,4.90
2019-05-17T02:25:27.196Z,4.63
2019-05-17T02:27:52.932Z,5.13
2019-05-17T02:30:23.363Z,5.53
2019-05-17T02:32:48.752Z,5.57
2019-05-17T02:35:17.099Z,5.50
2019-05-17T02:37:44.665Z,5.77
2019-05-17T02:40:14.416Z,5.60
2019-05-17T02:42:42.664Z,5.90
2019-05-17T02:45:07.996Z,5.70
2019-05-17T02:47:35.487Z,5.10
2019-05-17T02:50:05.652Z,5.27
2019-05-17T02:52:33.096Z,5.57
2019-05-17T02:55:04.002Z,5.33
2019-05-17T02:57:29.724Z,5.87
2019-05-17T02:59:57.312Z,4.87
2019-05-17T03:02:27.939Z,5.63
2019-05-17T03:04:53.244Z,4.47
2019-05-17T03:07:23.262Z,4.90
2019-05-17T03:09:48.462Z,5.70
2019-05-17T03:12:15.966Z,5.80
2019-05-17T03:14:44.322Z,4.90
2019-05-17T03:17:14.080Z,5.63
2019-05-17T03:19:39.563Z,5.23
2019-05-17T03:22:08.183Z,6.30
2019-05-17T03:24:36.103Z,6.07
2019-05-17T03:27:04.787Z,5.33
2019-05-17T03:29:33.576Z,5.50
2019-05-17T03:32:07.489Z,5.77
2019-05-17T03:34:29.042Z,5.50
2019-05-17T03:36:57.423Z,5.93
2019-05-17T03:39:25.898Z,4.87
2019-05-17T03:41:53.724Z,5.03
2019-05-17T03:44:22.596Z,5.07
2019-05-17T03:46:49.304Z,5.40
2019-05-17T03:49:16.852Z,5.90
2019-05-17T03:51:44.343Z,4.30
2019-05-17T03:54:13.761Z,5.70
2019-05-17T03:56:42.506Z,5.73
2019-05-17T03:59:07.008Z,5.20
2019-05-17T04:01:34.655Z,5.30
2019-05-17T04:04:02.797Z,5.40
2019-05-17T04:06:32.974Z,5.67
2019-05-17T04:08:58.909Z,5.63
2019-05-17T04:11:31.733Z,6.40
2019-05-17T04:13:54.861Z,6.20
2019-05-17T04:16:23.885Z,6.57
2019-05-17T04:18:53.297Z,5.20
2019-05-17T04:21:18.301Z,6.07
2019-05-17T04:23:46.738Z,6.67
2019-05-17T04:26:14.549Z,5.17
2019-05-17T04:28:44.039Z,5.87
2019-05-17T04:31:13.362Z,6.17
2019-05-17T04:33:42.672Z,5.97
2019-05-17T04:36:08.462Z,6.70
2019-05-17T04:38:36.839Z,6.57
2019-05-17T04:41:04.435Z,5.77
2019-05-17T04:43:33.589Z,5.93
2019-05-17T04:46:02.714Z,6.50
2019-05-17T04:48:32.313Z,5.70
2019-05-17T04:50:57.016Z,5.80
2019-05-17T04:53:24.596Z,6.23
2019-05-17T04:55:54.057Z,5.87
2019-05-17T04:58:23.210Z,5.83
2019-05-17T05:00:48.753Z,5.37
2019-05-17T05:03:16.273Z,5.23
2019-05-17T05:05:43.845Z,6.30
2019-05-17T05:08:13.037Z,6.37
2019-05-17T05:10:38.972Z,5.90
2019-05-17T05:13:08.006Z,6.13
2019-05-17T05:15:39.109Z,5.90
2019-05-17T05:18:06.613Z,5.73
2019-05-17T05:20:34.244Z,5.70
2019-05-17T05:23:02.716Z,5.97
2019-05-17T05:25:29.365Z,5.73
2019-05-17T05:27:57.757Z,5.60
2019-05-17T05:30:26.156Z,5.30
2019-05-17T05:32:54.412Z,5.70
2019-05-17T05:35:22.444Z,5.77
2019-05-17T05:37:52.464Z,5.23
2019-05-17T05:40:18.774Z,5.87
2019-05-17T05:42:47.231Z,5.40
2019-05-17T05:45:14.840Z,5.65
2019-05-17T05:47:42.456Z,5.53
2019-05-17T05:50:12.173Z,5.60
2019-05-17T05:52:38.402Z,5.10
2019-05-17T05:55:05.898Z,4.77
2019-05-17T05:57:34.225Z,5.80
2019-05-17T06:00:02.295Z,5.40
2019-05-17T06:02:29.318Z,5.20
2019-05-17T06:04:56.795Z,5.23
2019-05-17T06:07:24.320Z,5.10
2019-05-17T06:09:52.693Z,5.40
2019-05-17T06:12:26.936Z,5.78
2019-05-17T06:14:47.702Z,5.67
2019-05-17T06:17:15.307Z,5.33
2019-05-17T06:19:43.647Z,5.37
2019-05-17T06:22:12.005Z,5.40
2019-05-17T06:24:38.982Z,4.93
2019-05-17T06:27:06.565Z,6.00
2019-05-17T06:29:34.057Z,5.30
2019-05-17T06:32:02.694Z,5.43
2019-05-17T06:34:32.813Z,5.63
2019-05-17T06:36:58.360Z,5.30
2019-05-17T06:39:26.755Z,5.33
2019-05-17T06:41:55.246Z,4.80
2019-05-17T06:44:24.649Z,5.83
2019-05-17T06:46:52.894Z,5.77
2019-05-17T06:49:22.430Z,5.00
2019-05-17T06:51:48.738Z,4.90
2019-05-17T06:54:16.381Z,4.60
2019-05-17T06:56:43.900Z,4.90
2019-05-17T06:59:12.150Z,4.97
2019-05-17T07:01:41.046Z,5.13
2019-05-17T07:04:07.309Z,5.10
2019-05-17T07:06:35.552Z,6.30
2019-05-17T07:09:04.349Z,4.70
2019-05-17T07:11:32.883Z,5.47
2019-05-17T07:14:00.500Z,6.60
2019-05-17T07:16:29.951Z,6.30
2019-05-17T07:18:56.374Z,5.90
2019-05-17T07:21:24.625Z,6.23
2019-05-17T07:23:52.207Z,7.07
2019-05-17T07:26:19.858Z,6.43
2019-05-17T07:28:49.777Z,5.80
2019-05-17T07:31:15.783Z,5.80
2019-05-17T07:33:43.259Z,5.27
2019-05-17T07:36:10.794Z,6.30
2019-05-17T07:38:39.653Z,6.67
2019-05-17T07:41:05.805Z,5.67
2019-05-17T07:43:33.670Z,6.60
2019-05-17T07:46:02.013Z,6.27
2019-05-17T07:48:31.362Z,5.87
2019-05-17T07:50:59.388Z,6.00
2019-05-17T07:53:26.048Z,4.90
2019-05-17T07:55:54.310Z,5.93
2019-05-17T07:58:22.090Z,5.63
2019-05-17T08:00:51.230Z,5.40
2019-05-17T08:03:17.220Z,5.20
2019-05-17T08:05:44.696Z,5.57
2019-05-17T08:08:13.052Z,4.57
2019-05-17T08:10:41.250Z,5.10
2019-05-17T08:13:25.078Z,4.50
2019-05-17T08:15:36.343Z,4.60
2019-05-17T08:18:03.875Z,5.17
2019-05-17T08:20:31.595Z,5.27
2019-05-17T08:22:59.555Z,5.60
2019-05-17T08:25:26.590Z,5.80
2019-05-17T08:27:54.090Z,5.50
2019-05-17T08:30:21.655Z,5.07
2019-05-17T08:32:50.517Z,5.80
2019-05-17T08:35:19.699Z,5.70
2019-05-17T08:37:45.323Z,5.67
2019-05-17T08:40:15.230Z,6.13
2019-05-17T08:42:40.835Z,5.63
2019-05-17T08:45:09.694Z,5.87
2019-05-17T08:47:35.343Z,6.10
2019-05-17T08:50:06.056Z,4.93
2019-05-17T08:52:34.353Z,4.43
2019-05-17T08:55:01.851Z,5.40
2019-05-17T08:57:30.324Z,4.90
2019-05-17T08:59:56.986Z,5.50
2019-05-17T09:02:24.493Z,5.07
2019-05-17T09:04:52.068Z,5.10
2019-05-17T09:07:20.439Z,4.30
2019-05-17T09:09:50.105Z,4.87
2019-05-17T09:12:15.779Z,4.75
2019-05-17T09:14:43.349Z,4.87
2019-05-17T09:17:10.851Z,5.77
2019-05-17T09:19:39.506Z,4.93
2019-05-17T09:22:05.857Z,4.73
2019-05-17T09:24:34.197Z,5.10
2019-05-17T09:27:01.797Z,5.27
2019-05-17T09:29:30.163Z,4.90
2019-05-17T09:31:59.927Z,5.20
2019-05-17T09:34:25.853Z,5.10
2019-05-17T09:36:53.382Z,4.37
2019-05-17T09:39:21.627Z,5.30
2019-05-17T09:41:50.305Z,5.77
2019-05-17T09:44:16.704Z,4.63
2019-05-17T09:46:45.001Z,5.03
2019-05-17T09:49:12.478Z,5.23
2019-05-17T09:51:40.183Z,5.17
2019-05-17T09:54:10.092Z,5.30
2019-05-17T09:56:36.016Z,5.50
2019-05-17T09:59:04.515Z,5.03
2019-05-17T10:01:31.997Z,4.83
2019-05-17T10:04:00.457Z,6.00
2019-05-17T10:06:28.131Z,4.63
2019-05-17T10:08:55.635Z,6.10
2019-05-17T10:11:23.121Z,6.23
2019-05-17T10:13:50.720Z,6.30
2019-05-17T10:16:20.314Z,5.90
2019-05-17T10:18:45.779Z,6.27
2019-05-17T10:21:14.166Z,6.00
2019-05-17T10:23:41.703Z,5.30
2019-05-17T10:26:10.327Z,6.30
2019-05-17T10:28:39.829Z,6.43
2019-05-17T10:31:05.213Z,5.53
2019-05-17T10:33:33.475Z,7.17
2019-05-17T10:36:01.063Z,5.40
2019-05-17T10:38:29.975Z,6.83
2019-05-17T10:40:57.563Z,5.83
2019-05-17T10:43:25.048Z,7.57
2019-05-17T10:45:52.622Z,5.87
2019-05-17T10:48:21.192Z,5.17
2019-05-17T10:50:49.647Z,5.60
2019-05-17T10:53:16.242Z,4.80
2019-05-17T10:55:43.742Z,5.10
2019-05-17T10:58:11.264Z,6.10
2019-05-17T11:00:41.155Z,5.27
2019-05-17T11:03:06.398Z,5.43
2019-05-17T11:05:34.644Z,5.17
2019-05-17T11:08:02.242Z,4.93
2019-05-17T11:10:31.404Z,5.60
2019-05-17T11:12:58.891Z,5.37
2019-05-17T11:15:26.468Z,4.87
2019-05-17T11:17:53.959Z,5.83
2019-05-17T11:20:22.320Z,6.13
2019-05-17T11:22:49.913Z,5.73
2019-05-17T11:25:18.166Z,6.12
2019-05-17T11:27:45.822Z,5.37
2019-05-17T11:30:13.299Z,5.17
2019-05-17T11:32:40.849Z,5.57
2019-05-17T11:35:08.416Z,5.03
2019-05-17T11:37:35.889Z,5.67
2019-05-17T11:40:08.107Z,5.50
2019-05-17T11:42:33.029Z,5.50
2019-05-17T11:45:00.583Z,4.80
2019-05-17T11:47:28.283Z,4.43
2019-05-17T11:49:55.960Z,4.33
2019-05-17T11:52:24.596Z,3.97
2019-05-17T11:54:52.081Z,4.33
2019-05-17T11:57:19.658Z,4.30
2019-05-17T11:59:47.230Z,4.37
2019-05-17T12:02:14.798Z,3.70
2019-05-17T12:04:42.359Z,4.03
2019-05-17T12:07:09.847Z,4.07
2019-05-17T12:09:39.336Z,3.77
2019-05-17T12:12:07.060Z,3.73
2019-05-17T12:14:34.672Z,4.10
2019-05-17T12:17:02.151Z,3.60
2019-05-17T12:19:30.644Z,4.13
2019-05-17T12:21:58.895Z,4.03
2019-05-17T12:24:26.435Z,4.23
2019-05-17T12:26:53.926Z,4.30
2019-05-17T12:29:21.512Z,4.30
2019-05-17T12:31:49.764Z,4.90
2019-05-17T12:34:17.427Z,3.83
2019-05-17T12:36:44.965Z,3.77
2019-05-17T12:39:12.464Z,3.90
2019-05-17T12:41:39.976Z,4.53
2019-05-17T12:44:07.593Z,4.03
2019-05-17T12:46:35.074Z,4.43
2019-05-17T12:49:04.354Z,4.80
2019-05-17T12:51:33.023Z,4.03
2019-05-17T12:53:59.372Z,3.80
2019-05-17T12:56:27.051Z,4.17
2019-05-17T12:58:54.533Z,3.97
2019-05-17T13:01:22.824Z,3.50
2019-05-17T13:03:51.202Z,3.80
2019-05-17T13:06:19.773Z,3.67
2019-05-17T13:08:47.228Z,3.90
2019-05-17T13:11:14.783Z,4.37
2019-05-17T13:13:43.309Z,4.57
2019-05-17T13:16:17.784Z,3.53
2019-05-17T13:18:38.505Z,4.30
2019-05-17T13:21:05.990Z,4.50
2019-05-17T13:23:34.551Z,4.60
2019-05-17T13:26:02.042Z,3.87
2019-05-17T13:28:30.412Z,4.43
2019-05-17T13:30:57.933Z,3.80
2019-05-17T13:33:28.960Z,4.27
2019-05-17T13:35:53.012Z,4.90
2019-05-17T13:38:21.378Z,4.30
2019-05-17T13:40:48.865Z,4.60
2019-05-17T13:43:17.123Z,4.25
2019-05-17T13:45:45.137Z,4.47
2019-05-17T13:48:12.441Z,5.13
2019-05-17T13:50:39.976Z,4.70
2019-05-17T13:53:07.477Z,4.60
2019-05-17T13:55:35.131Z,4.83
2019-05-17T13:58:02.707Z,5.00
2019-05-17T14:00:30.199Z,5.10
2019-05-17T14:02:58.554Z,5.47
2019-05-17T14:05:26.497Z,4.97
2019-05-17T14:07:53.973Z,5.20
2019-05-17T14:10:27.667Z,4.90
2019-05-17T14:12:49.116Z,4.77
2019-05-17T14:15:16.699Z,4.47
2019-05-17T14:17:45.101Z,5.27
2019-05-17T14:20:12.576Z,5.13
2019-05-17T14:22:40.053Z,5.37
2019-05-17T14:25:07.646Z,4.73
2019-05-17T14:27:35.247Z,5.20
2019-05-17T14:30:05.211Z,5.03
2019-05-17T14:32:32.712Z,3.97
2019-05-17T14:35:00.259Z,3.97
2019-05-17T14:37:28.638Z,4.47
2019-05-17T14:39:56.155Z,4.20
2019-05-17T14:42:23.630Z,4.47
2019-05-17T14:44:51.138Z,4.67
2019-05-17T14:47:19.207Z,4.10
2019-05-17T14:49:47.132Z,4.13
2019-05-17T14:52:14.843Z,4.13
2019-05-17T14:54:42.406Z,4.70
2019-05-17T14:57:10.021Z,4.43
2019-05-17T14:59:37.504Z,4.70
2019-05-17T15:02:05.214Z,4.20
2019-05-17T15:04:32.700Z,4.73
2019-05-17T15:07:01.148Z,3.83
2019-05-17T15:09:28.918Z,3.90
2019-05-17T15:11:57.736Z,3.77
2019-05-17T15:14:25.295Z,3.27
2019-05-17T15:16:52.855Z,3.90
2019-05-17T15:19:20.337Z,4.33
2019-05-17T15:21:48.706Z,3.97
2019-05-17T15:24:16.192Z,3.40
2019-05-17T15:26:43.827Z,3.83
2019-05-17T15:29:11.339Z,3.80
2019-05-17T15:31:39.767Z,3.57
2019-05-17T15:34:07.356Z,3.77
2019-05-17T15:36:35.614Z,4.37
2019-05-17T15:39:04.407Z,4.43
2019-05-17T15:41:32.325Z,4.63
2019-05-17T15:44:00.052Z,4.73
2019-05-17T15:46:27.624Z,4.70
2019-05-17T15:48:55.875Z,4.30
2019-05-17T15:51:23.381Z,5.27
2019-05-17T15:53:51.630Z,4.67
2019-05-17T15:56:19.322Z,4.10
2019-05-17T15:58:47.575Z,4.43
2019-05-17T16:01:15.075Z,4.83
2019-05-17T16:03:43.328Z,5.17
2019-05-17T16:06:10.852Z,6.07
2019-05-17T16:08:38.357Z,4.73
2019-05-17T16:11:05.852Z,5.63
2019-05-17T16:13:33.984Z,5.50
2019-05-17T16:16:01.049Z,4.83
2019-05-17T16:18:29.426Z,5.20
2019-05-17T16:20:56.991Z,4.60
2019-05-17T16:23:24.478Z,4.83
2019-05-17T16:25:53.096Z,5.30
2019-05-17T16:28:20.588Z,4.43
2019-05-17T16:30:48.985Z,5.03
2019-05-17T16:33:18.091Z,5.93
2019-05-17T16:35:45.666Z,5.50
2019-05-17T16:38:14.150Z,4.43
2019-05-17T16:40:41.814Z,5.57
2019-05-17T16:43:17.638Z,5.53
2019-05-17T16:45:36.825Z,4.82
2019-05-17T16:48:04.360Z,4.80
2019-05-17T16:50:31.865Z,5.50
2019-05-17T16:53:05.844Z,3.97
2019-05-17T16:55:26.991Z,5.70
2019-05-17T16:57:54.482Z,6.13
2019-05-17T17:00:26.257Z,5.23
2019-05-17T17:02:53.808Z,4.87
2019-05-17T17:05:21.370Z,4.40
2019-05-17T17:07:49.602Z,4.47
2019-05-17T17:10:17.798Z,5.40
2019-05-17T17:12:46.045Z,4.80
2019-05-17T17:15:13.652Z,5.60
2019-05-17T17:17:41.134Z,4.60
2019-05-17T17:20:09.490Z,5.03
2019-05-17T17:22:37.065Z,4.57
2019-05-17T17:25:06.070Z,5.20
2019-05-17T17:27:34.428Z,4.63
2019-05-17T17:30:05.233Z,5.60
2019-05-17T17:32:32.836Z,4.97
2019-05-17T17:35:00.398Z,5.90
2019-05-17T17:37:28.111Z,5.57
2019-05-17T17:39:55.587Z,5.90
2019-05-17T17:42:23.295Z,5.67
2019-05-17T17:44:50.795Z,5.37
2019-05-17T17:47:18.325Z,5.20
2019-05-17T17:49:45.893Z,5.43
2019-05-17T17:52:13.490Z,5.20
2019-05-17T17:54:41.835Z,5.20
2019-05-17T17:57:09.319Z,4.70
2019-05-17T17:59:37.873Z,5.67
2019-05-17T18:02:05.647Z,4.87
2019-05-17T18:04:33.122Z,5.37
2019-05-17T18:07:00.671Z,5.20
2019-05-17T18:09:28.184Z,4.70
2019-05-17T18:11:55.664Z,4.80
2019-05-17T18:14:23.167Z,4.70
2019-05-17T18:16:50.657Z,4.53
2019-05-17T18:19:19.030Z,5.03
2019-05-17T18:21:47.286Z,5.10
2019-05-17T18:24:15.003Z,4.63
2019-05-17T18:26:42.515Z,4.77
2019-05-17T18:29:10.000Z,4.43
2019-05-17T18:31:38.370Z,4.40
2019-05-17T18:34:05.842Z,4.37
2019-05-17T18:36:33.626Z,4.73
2019-05-17T18:39:01.885Z,4.40
2019-05-17T18:41:29.380Z,4.87
2019-05-17T18:43:58.551Z,4.73
2019-05-17T18:46:26.114Z,4.60
2019-05-17T18:48:53.692Z,4.87
2019-05-17T18:51:21.195Z,4.63
2019-05-17T18:53:48.714Z,4.50
2019-05-17T18:56:16.308Z,4.90
2019-05-17T18:58:43.787Z,4.53
2019-05-17T19:01:11.298Z,5.30
2019-05-17T19:03:38.798Z,4.90
2019-05-17T19:06:06.306Z,4.77
2019-05-17T19:08:33.779Z,4.57
2019-05-17T19:11:02.792Z,4.90
2019-05-17T19:13:31.178Z,4.70
2019-05-17T19:16:00.457Z,4.37
2019-05-17T19:18:27.963Z,4.20
2019-05-17T19:20:56.210Z,4.63
2019-05-17T19:23:25.959Z,4.97
2019-05-17T19:25:54.202Z,4.30
2019-05-17T19:28:22.935Z,4.90
2019-05-17T19:30:50.413Z,4.43
2019-05-17T19:33:17.912Z,5.10
2019-05-17T19:35:45.433Z,4.60
2019-05-17T19:38:12.911Z,4.93
2019-05-17T19:40:40.446Z,5.27
2019-05-17T19:43:08.598Z,4.73
2019-05-17T19:45:36.083Z,4.90
2019-05-17T19:48:04.625Z,5.20
2019-05-17T19:50:32.118Z,4.83
2019-05-17T19:53:00.399Z,4.77
2019-05-17T19:55:28.754Z,5.23
2019-05-17T19:57:56.263Z,5.50
2019-05-17T20:00:23.890Z,4.43
2019-05-17T20:02:51.373Z,5.37
2019-05-17T20:05:19.759Z,5.43
2019-05-17T20:07:48.005Z,5.33
2019-05-17T20:10:15.486Z,5.13
2019-05-17T20:12:42.989Z,5.30
2019-05-17T20:15:17.236Z,4.63
2019-05-17T20:17:38.836Z,5.13
2019-05-17T20:20:06.333Z,5.43
2019-05-17T20:22:33.906Z,5.37
2019-05-17T20:25:01.477Z,6.37
2019-05-17T20:27:29.959Z,4.53
2019-05-17T20:29:57.523Z,5.27
2019-05-17T20:32:25.000Z,5.33
2019-05-17T20:34:52.683Z,4.80
2019-05-17T20:37:21.006Z,5.00
2019-05-17T20:39:48.499Z,5.15
2019-05-17T20:42:16.008Z,5.73
2019-05-17T20:44:43.539Z,5.30
2019-05-17T20:47:11.024Z,5.87
2019-05-17T20:49:39.395Z,5.80
2019-05-17T20:52:07.767Z,5.50
2019-05-17T20:54:36.857Z,5.40
2019-05-17T20:57:04.419Z,6.27
2019-05-17T20:59:31.912Z,5.07
2019-05-17T21:02:01.186Z,5.30
2019-05-17T21:04:28.760Z,5.20
2019-05-17T21:06:57.076Z,5.73
2019-05-17T21:09:24.599Z,6.47
2019-05-17T21:11:52.096Z,5.80
2019-05-17T21:14:19.578Z,6.00
2019-05-17T21:16:47.110Z,4.77
2019-05-17T21:19:15.465Z,5.97
2019-05-17T21:21:42.951Z,5.30
2019-05-17T21:24:11.791Z,6.27
2019-05-17T21:26:39.516Z,6.50
2019-05-17T21:29:07.876Z,6.07
2019-05-17T21:31:35.535Z,6.00
2019-05-17T21:34:03.614Z,6.32
2019-05-17T21:36:31.090Z,6.60
2019-05-17T21:38:59.345Z,6.90
2019-05-17T21:41:26.839Z,5.97
2019-05-17T21:43:55.104Z,7.60
2019-05-17T21:46:22.588Z,7.13
2019-05-17T21:48:50.953Z,5.80
2019-05-17T21:51:18.452Z,7.53
2019-05-17T21:53:45.995Z,8.10
2019-05-17T21:56:14.362Z,7.57
2019-05-17T21:58:41.940Z,6.67
2019-05-17T22:01:11.083Z,6.70
2019-05-17T22:03:38.614Z,8.10
2019-05-17T22:06:06.872Z,9.20
2019-05-17T22:08:34.370Z,7.93
2019-05-17T22:11:01.858Z,8.23
2019-05-17T22:13:30.377Z,8.87
2019-05-17T22:15:57.885Z,9.30
2019-05-17T22:18:25.531Z,9.40
2019-05-17T22:20:53.889Z,7.30
2019-05-17T22:23:21.389Z,8.60
2019-05-17T22:25:49.070Z,8.17
2019-05-17T22:28:17.663Z,9.07
2019-05-17T22:30:45.223Z,8.87
2019-05-17T22:33:12.855Z,7.85
2019-05-17T22:35:41.236Z,7.90
2019-05-17T22:38:09.603Z,6.63
2019-05-17T22:40:37.131Z,8.07
2019-05-17T22:43:04.811Z,9.20
2019-05-17T22:45:32.311Z,8.27
2019-05-17T22:47:59.968Z,7.23
2019-05-17T22:50:27.450Z,8.27
2019-05-17T22:52:55.698Z,8.50
2019-05-17T22:55:23.946Z,8.90
2019-05-17T22:57:51.556Z,8.97
2019-05-17T23:00:19.139Z,8.47
2019-05-17T23:02:47.554Z,8.93
2019-05-17T23:05:15.038Z,9.05
2019-05-17T23:07:42.626Z,8.80
2019-05-17T23:10:10.182Z,8.52
2019-05-17T23:12:37.693Z,8.77
2019-05-17T23:15:05.991Z,8.50
2019-05-17T23:17:33.489Z,8.70
2019-05-17T23:20:01.006Z,9.70
2019-05-17T23:22:28.485Z,8.97
2019-05-17T23:24:55.986Z,9.23
2019-05-17T23:27:23.545Z,9.23
2019-05-17T23:29:51.828Z,8.80
2019-05-17T23:32:19.304Z,8.23
2019-05-17T23:34:46.799Z,10.00
2019-05-17T23:37:14.294Z,9.37
2019-05-17T23:39:41.883Z,8.37
2019-05-17T23:42:09.553Z,9.47
2019-05-17T23:44:38.646Z,8.87
2019-05-17T23:47:07.510Z,8.73
2019-05-17T23:49:33.672Z,9.07
2019-05-17T23:52:01.390Z,10.03
2019-05-17T23:54:29.012Z,9.17
2019-05-17T23:56:58.008Z,8.43
2019-05-17T23:59:25.499Z,7.23
